This is the latest recevied weather packets stored in our database for station/object BMCB-31. If no packets are shown the sender has not sent any weather packets the latest 10 day(s).
| Time | Temp. | Humidity | Pressure | Rain* | Wind** | Luminosity | Snow |
|---|---|---|---|---|---|---|---|
| 1777877456 | 13.33° C | 84% | 1015.6 hPa | 0 mm | - | 218 W/m² | - |
| 1777876858 | 12.78° C | 84% | 1015.4 hPa | 0 mm | - | 200 W/m² | - |
| 1777872055 | 10.56° C | 92% | 1015.3 hPa | 0 mm | - | 24 W/m² | - |
| 1777871457 | 10° C | 93% | 1015.2 hPa | 0 mm | - | 48 W/m² | - |
| 1777869658 | 9.44° C | 95% | 1015.2 hPa | 0 mm | - | 16 W/m² | - |
| 1777867857 | 9.44° C | 93% | 1015 hPa | 0 mm | - | 2 W/m² | - |
| 1777862453 | 11.11° C | 88% | 1014.9 hPa | 0 mm | - | 0 W/m² | - |
| 1777861856 | 11.11° C | 88% | 1014.8 hPa | 0 mm | - | 0 W/m² | - |
| 1777861257 | 11.11° C | 87% | 1014.9 hPa | 0 mm | - | 0 W/m² | - |
| 1777857058 | 11.67° C | 88% | 1014.9 hPa | 0 mm | - | 0 W/m² | - |
| 1777851063 | 11.67° C | 89% | 1015 hPa | 0 mm | - | 0 W/m² | - |
| 1777849264 | 11.67° C | 90% | 1015.2 hPa | 0 mm | - | 0 W/m² | - |
| 1777846859 | 11.67° C | 90% | 1015 hPa | 0 mm | - | 0 W/m² | - |
| 1777843260 | 11.67° C | 90% | 1015.3 hPa | 0 mm | - | 0 W/m² | - |
| 1777842058 | 11.67° C | 90% | 1015.3 hPa | 0 mm | - | 0 W/m² | - |
| 1777838461 | 12.78° C | 88% | 1015 hPa | 0 mm | - | 0 W/m² | - |
| 1777837860 | 12.78° C | 88% | 1015 hPa | 0 mm | - | 0 W/m² | - |
| 1777837263 | 12.78° C | 88% | 1015 hPa | 0 mm | - | 0 W/m² | - |
| 1777834861 | 13.33° C | 87% | 1014.9 hPa | 0 mm | - | 0 W/m² | - |
| 1777833060 | 13.33° C | 85% | 1014.6 hPa | 0 mm | - | 8 W/m² | - |
| 1777829460 | 13.89° C | 83% | 1014.1 hPa | 0 mm | - | 34 W/m² | - |
| 1777824054 | 15° C | 83% | 1014.1 hPa | 0 mm | - | 176 W/m² | - |
| 1777819855 | 13.89° C | 88% | 1014.5 hPa | 0.51 mm | - | 112 W/m² | - |
| 1777812053 | 13.33° C | 83% | 1015 hPa | 0.51 mm | - | 172 W/m² | - |
| 1777809659 | 12.78° C | 86% | 1015.1 hPa | 1.02 mm | - | 210 W/m² | - |
* Rain latest hour (hover to see other rain measurements)
** Current wind speed in m/s (hover to see current wind gust speed)